Terminal Aerodrome Forecast
Issued by NWS

Home | Current Version | Previous Version | Text Only | Print | Product List | Glossary On
Versions: 1 2 3 4 5 6 7 8 9 10 11 12 13 14 15 16
000
FTUS46 KLOX 200500
TAFOXR
TAF
KOXR 200524Z 2006/2106 VRB03KT P6SM SKC
     FM200900 VRB03KT P6SM OVC015
     FM201700 23006KT P6SM OVC022
     FM202100 25012KT P6SM SCT025
     FM210400 VRB03KT P6SM OVC015=

USA.gov is the U.S. government's official web portal to all federal, state and local government web resources and services.